sensor_id;sensor_type;location;lat;lon;timestamp;pressure;altitude;pressure_sealevel;temperature;humidity
81833;BME280;71270;52.148;4.500;2023-10-19T00:00:38;99251.22;;;12.09;87.80
81833;BME280;71270;52.148;4.500;2023-10-19T00:03:06;99259.75;;;11.79;88.32
81833;BME280;71270;52.148;4.500;2023-10-19T00:05:34;99233.56;;;11.59;89.30
81833;BME280;71270;52.148;4.500;2023-10-19T00:08:00;99258.97;;;11.56;90.50
81833;BME280;71270;52.148;4.500;2023-10-19T00:10:31;99224.22;;;11.39;90.58
81833;BME280;71270;52.148;4.500;2023-10-19T00:13:02;99231.91;;;11.58;90.48
81833;BME280;71270;52.148;4.500;2023-10-19T00:15:37;99243.66;;;11.79;90.53
81833;BME280;71270;52.148;4.500;2023-10-19T00:18:06;99256.75;;;11.75;90.34
81833;BME280;71270;52.148;4.500;2023-10-19T00:20:41;99215.84;;;11.58;91.11
81833;BME280;71270;52.148;4.500;2023-10-19T00:23:06;99229.69;;;12.31;88.15
81833;BME280;71270;52.148;4.500;2023-10-19T00:25:33;99235.16;;;12.14;88.79
81833;BME280;71270;52.148;4.500;2023-10-19T00:28:03;99233.25;;;12.09;90.05
81833;BME280;71270;52.148;4.500;2023-10-19T00:30:29;99247.44;;;12.05;89.90
81833;BME280;71270;52.148;4.500;2023-10-19T00:32:57;99242.47;;;11.91;90.46
81833;BME280;71270;52.148;4.500;2023-10-19T00:35:22;99235.38;;;11.80;91.40
81833;BME280;71270;52.148;4.500;2023-10-19T00:37:59;99241.25;;;11.77;92.18
81833;BME280;71270;52.148;4.500;2023-10-19T00:40:49;99228.59;;;11.73;92.57
81833;BME280;71270;52.148;4.500;2023-10-19T00:43:26;99243.66;;;11.79;92.99
81833;BME280;71270;52.148;4.500;2023-10-19T00:45:51;99221.97;;;11.80;93.14
81833;BME280;71270;52.148;4.500;2023-10-19T00:48:17;99233.50;;;11.81;93.46
81833;BME280;71270;52.148;4.500;2023-10-19T00:50:43;99237.88;;;11.87;93.69
81833;BME280;71270;52.148;4.500;2023-10-19T00:53:09;99229.84;;;11.87;93.41
81833;BME280;71270;52.148;4.500;2023-10-19T00:55:38;99228.81;;;11.93;93.44
81833;BME280;71270;52.148;4.500;2023-10-19T00:58:04;99218.69;;;12.00;93.25
81833;BME280;71270;52.148;4.500;2023-10-19T01:00:35;99198.09;;;12.06;92.14
81833;BME280;71270;52.148;4.500;2023-10-19T01:03:10;99212.31;;;12.06;92.70
81833;BME280;71270;52.148;4.500;2023-10-19T01:05:36;99222.19;;;12.01;93.18
81833;BME280;71270;52.148;4.500;2023-10-19T01:08:03;99219.81;;;12.04;93.54
81833;BME280;71270;52.148;4.500;2023-10-19T01:10:39;99221.94;;;12.02;93.38
81833;BME280;71270;52.148;4.500;2023-10-19T01:13:05;99221.16;;;12.07;93.19
81833;BME280;71270;52.148;4.500;2023-10-19T01:15:32;99215.25;;;12.05;93.44
81833;BME280;71270;52.148;4.500;2023-10-19T01:18:02;99238.06;;;12.07;93.54
81833;BME280;71270;52.148;4.500;2023-10-19T01:20:31;99231.66;;;12.08;93.85
81833;BME280;71270;52.148;4.500;2023-10-19T01:23:07;99241.59;;;12.13;93.77
81833;BME280;71270;52.148;4.500;2023-10-19T01:25:57;99240.53;;;12.14;93.93
81833;BME280;71270;52.148;4.500;2023-10-19T01:28:24;99231.16;;;12.16;93.89
81833;BME280;71270;52.148;4.500;2023-10-19T01:31:10;99220.41;;;12.11;94.07
81833;BME280;71270;52.148;4.500;2023-10-19T01:33:43;99205.56;;;12.04;94.03
81833;BME280;71270;52.148;4.500;2023-10-19T01:36:10;99221.00;;;12.18;93.71
81833;BME280;71270;52.148;4.500;2023-10-19T01:38:35;99228.56;;;12.27;94.16
81833;BME280;71270;52.148;4.500;2023-10-19T01:41:02;99223.22;;;12.27;94.22
81833;BME280;71270;52.148;4.500;2023-10-19T01:43:42;99222.41;;;12.26;94.28
81833;BME280;71270;52.148;4.500;2023-10-19T01:46:08;99219.25;;;12.34;94.12
81833;BME280;71270;52.148;4.500;2023-10-19T01:48:41;99223.31;;;12.42;93.97
81833;BME280;71270;52.148;4.500;2023-10-19T01:51:08;99226.63;;;12.54;94.01
81833;BME280;71270;52.148;4.500;2023-10-19T01:53:38;99199.16;;;12.37;94.17
81833;BME280;71270;52.148;4.500;2023-10-19T01:56:14;99210.31;;;12.61;94.78
81833;BME280;71270;52.148;4.500;2023-10-19T01:58:42;99213.56;;;12.68;95.07
81833;BME280;71270;52.148;4.500;2023-10-19T02:01:08;99187.19;;;12.55;94.88
81833;BME280;71270;52.148;4.500;2023-10-19T02:03:44;99209.09;;;12.84;94.92
81833;BME280;71270;52.148;4.500;2023-10-19T02:06:11;99219.63;;;12.96;94.85
81833;BME280;71270;52.148;4.500;2023-10-19T02:08:54;99220.72;;;13.05;94.40
81833;BME280;71270;52.148;4.500;2023-10-19T02:11:26;99206.28;;;13.16;94.90
81833;BME280;71270;52.148;4.500;2023-10-19T02:13:53;99208.25;;;13.31;94.55
81833;BME280;71270;52.148;4.500;2023-10-19T02:16:29;99211.28;;;13.55;94.90
81833;BME280;71270;52.148;4.500;2023-10-19T02:18:55;99210.75;;;13.63;94.07
81833;BME280;71270;52.148;4.500;2023-10-19T02:21:20;99205.94;;;13.75;94.01
81833;BME280;71270;52.148;4.500;2023-10-19T02:23:52;99203.81;;;13.88;93.06
81833;BME280;71270;52.148;4.500;2023-10-19T02:26:19;99206.75;;;13.96;93.02
81833;BME280;71270;52.148;4.500;2023-10-19T02:28:56;99203.28;;;14.01;92.53
81833;BME280;71270;52.148;4.500;2023-10-19T02:31:22;99189.00;;;14.00;91.85
81833;BME280;71270;52.148;4.500;2023-10-19T02:33:54;99191.44;;;14.07;91.62
81833;BME280;71270;52.148;4.500;2023-10-19T02:36:26;99199.25;;;14.19;91.44
81833;BME280;71270;52.148;4.500;2023-10-19T02:38:58;99192.53;;;14.11;91.08
81833;BME280;71270;52.148;4.500;2023-10-19T02:41:25;99197.88;;;14.21;90.88
81833;BME280;71270;52.148;4.500;2023-10-19T02:43:55;99197.38;;;14.19;90.58
81833;BME280;71270;52.148;4.500;2023-10-19T02:46:32;99186.59;;;14.19;91.00
81833;BME280;71270;52.148;4.500;2023-10-19T02:49:02;99192.25;;;14.23;90.50
81833;BME280;71270;52.148;4.500;2023-10-19T02:51:29;99166.16;;;14.08;90.41
81833;BME280;71270;52.148;4.500;2023-10-19T02:53:54;99190.38;;;14.23;90.53
81833;BME280;71270;52.148;4.500;2023-10-19T02:56:20;99182.81;;;14.30;90.13
81833;BME280;71270;52.148;4.500;2023-10-19T02:58:48;99182.81;;;14.30;89.84
81833;BME280;71270;52.148;4.500;2023-10-19T03:01:19;99182.00;;;14.35;89.72
81833;BME280;71270;52.148;4.500;2023-10-19T03:03:54;99177.19;;;14.32;89.36
81833;BME280;71270;52.148;4.500;2023-10-19T03:06:23;99183.63;;;14.41;88.92
81833;BME280;71270;52.148;4.500;2023-10-19T03:08:48;99187.91;;;14.42;88.78
81833;BME280;71270;52.148;4.500;2023-10-19T03:11:23;99184.41;;;14.42;88.27
81833;BME280;71270;52.148;4.500;2023-10-19T03:13:48;99184.94;;;14.39;88.22
81833;BME280;71270;52.148;4.500;2023-10-19T03:16:15;99186.59;;;14.40;87.86
81833;BME280;71270;52.148;4.500;2023-10-19T03:18:40;99177.16;;;14.37;88.20
81833;BME280;71270;52.148;4.500;2023-10-19T03:21:06;99178.25;;;14.36;87.98
81833;BME280;71270;52.148;4.500;2023-10-19T03:23:32;99179.03;;;14.31;88.00
81833;BME280;71270;52.148;4.500;2023-10-19T03:25:59;99178.78;;;14.23;88.56
81833;BME280;71270;52.148;4.500;2023-10-19T03:28:25;99180.66;;;14.07;89.22
81833;BME280;71270;52.148;4.500;2023-10-19T03:30:51;99178.53;;;14.04;89.75
81833;BME280;71270;52.148;4.500;2023-10-19T03:33:16;99176.13;;;13.97;89.41
81833;BME280;71270;52.148;4.500;2023-10-19T03:35:43;99175.84;;;13.99;89.69
81833;BME280;71270;52.148;4.500;2023-10-19T03:38:08;99138.72;;;13.80;89.11
81833;BME280;71270;52.148;4.500;2023-10-19T03:40:41;99162.66;;;13.92;88.98
81833;BME280;71270;52.148;4.500;2023-10-19T03:43:07;99181.22;;;13.94;89.36
81833;BME280;71270;52.148;4.500;2023-10-19T03:45:47;99171.53;;;13.98;88.36
81833;BME280;71270;52.148;4.500;2023-10-19T03:48:20;99172.34;;;13.98;88.66
81833;BME280;71270;52.148;4.500;2023-10-19T03:50:53;99183.13;;;14.08;88.29
81833;BME280;71270;52.148;4.500;2023-10-19T03:53:20;99171.00;;;14.06;88.04
81833;BME280;71270;52.148;4.500;2023-10-19T03:55:47;99183.38;;;13.87;88.63
81833;BME280;71270;52.148;4.500;2023-10-19T03:58:13;99178.50;;;13.78;89.33
81833;BME280;71270;52.148;4.500;2023-10-19T04:00:38;99171.00;;;13.70;89.54
81833;BME280;71270;52.148;4.500;2023-10-19T04:03:03;99167.22;;;13.81;88.39
81833;BME280;71270;52.148;4.500;2023-10-19T04:05:30;99146.00;;;13.70;88.61
81833;BME280;71270;52.148;4.500;2023-10-19T04:07:56;99157.00;;;13.68;89.00
81833;BME280;71270;52.148;4.500;2023-10-19T04:10:23;99177.72;;;13.78;88.82
81833;BME280;71270;52.148;4.500;2023-10-19T04:12:55;99179.31;;;13.74;88.88
81833;BME280;71270;52.148;4.500;2023-10-19T04:15:20;99176.38;;;13.80;88.36
81833;BME280;71270;52.148;4.500;2023-10-19T04:17:47;99145.69;;;13.61;88.54
81833;BME280;71270;52.148;4.500;2023-10-19T04:20:17;99173.41;;;13.72;88.97
81833;BME280;71270;52.148;4.500;2023-10-19T04:22:43;99174.75;;;13.74;88.59
81833;BME280;71270;52.148;4.500;2023-10-19T04:25:09;99166.13;;;13.67;88.94
81833;BME280;71270;52.148;4.500;2023-10-19T04:27:38;99168.84;;;13.77;88.54
81833;BME280;71270;52.148;4.500;2023-10-19T04:30:04;99170.44;;;13.68;88.49
81833;BME280;71270;52.148;4.500;2023-10-19T04:32:29;99177.44;;;13.84;87.78
81833;BME280;71270;52.148;4.500;2023-10-19T04:34:57;99180.94;;;13.80;88.50
81833;BME280;71270;52.148;4.500;2023-10-19T04:37:24;99175.28;;;13.71;88.78
81833;BME280;71270;52.148;4.500;2023-10-19T04:39:49;99169.09;;;13.71;88.74
81833;BME280;71270;52.148;4.500;2023-10-19T04:42:15;99154.59;;;13.67;88.12
81833;BME280;71270;52.148;4.500;2023-10-19T04:44:41;99174.47;;;13.76;88.26
81833;BME280;71270;52.148;4.500;2023-10-19T04:47:06;99174.19;;;13.72;88.47
81833;BME280;71270;52.148;4.500;2023-10-19T04:49:32;99172.59;;;13.71;88.25
81833;BME280;71270;52.148;4.500;2023-10-19T04:51:57;99171.50;;;14.59;84.00
81833;BME280;71270;52.148;4.500;2023-10-19T04:54:22;99170.59;;;15.49;79.01
81833;BME280;71270;52.148;4.500;2023-10-19T04:56:48;99175.22;;;16.22;75.72
81833;BME280;71270;52.148;4.500;2023-10-19T04:59:13;99174.13;;;16.76;72.65
81833;BME280;71270;52.148;4.500;2023-10-19T05:01:39;99182.22;;;17.24;70.63
81833;BME280;71270;52.148;4.500;2023-10-19T05:04:06;99157.88;;;17.43;68.93
81833;BME280;71270;52.148;4.500;2023-10-19T05:06:31;99195.91;;;17.89;67.53
81833;BME280;71270;52.148;4.500;2023-10-19T05:08:56;99201.75;;;18.16;66.36
81833;BME280;71270;52.148;4.500;2023-10-19T05:11:22;99196.00;;;18.36;65.24
81833;BME280;71270;52.148;4.500;2023-10-19T05:13:47;99186.88;;;18.59;65.28
81833;BME280;71270;52.148;4.500;2023-10-19T05:16:13;99195.53;;;18.62;65.33
81833;BME280;71270;52.148;4.500;2023-10-19T05:18:38;99189.09;;;18.57;65.18
81833;BME280;71270;52.148;4.500;2023-10-19T05:21:04;99195.41;;;18.53;64.68
81833;BME280;71270;52.148;4.500;2023-10-19T05:23:30;99182.84;;;18.43;65.09
81833;BME280;71270;52.148;4.500;2023-10-19T05:26:03;99191.47;;;18.45;64.46
81833;BME280;71270;52.148;4.500;2023-10-19T05:28:29;99190.38;;;18.46;64.17
81833;BME280;71270;52.148;4.500;2023-10-19T05:30:54;99185.31;;;17.12;71.25
81833;BME280;71270;52.148;4.500;2023-10-19T05:33:20;99153.03;;;16.25;73.96
81833;BME280;71270;52.148;4.500;2023-10-19T05:35:49;99202.53;;;15.76;76.76
81833;BME280;71270;52.148;4.500;2023-10-19T05:38:15;99193.56;;;15.41;78.53
81833;BME280;71270;52.148;4.500;2023-10-19T05:40:41;99195.41;;;15.41;78.73
81833;BME280;71270;52.148;4.500;2023-10-19T05:43:08;99199.56;;;15.23;79.77
81833;BME280;71270;52.148;4.500;2023-10-19T05:45:33;99188.81;;;15.18;80.04
81833;BME280;71270;52.148;4.500;2023-10-19T05:48:01;99195.53;;;15.20;80.45
81833;BME280;71270;52.148;4.500;2023-10-19T05:50:29;99203.38;;;15.12;80.46
81833;BME280;71270;52.148;4.500;2023-10-19T05:52:54;99186.94;;;15.13;80.23
81833;BME280;71270;52.148;4.500;2023-10-19T05:55:19;99199.34;;;15.09;80.52
81833;BME280;71270;52.148;4.500;2023-10-19T05:57:47;99184.28;;;15.03;80.91
81833;BME280;71270;52.148;4.500;2023-10-19T06:00:12;99188.59;;;15.04;80.80
81833;BME280;71270;52.148;4.500;2023-10-19T06:02:43;99181.63;;;14.88;81.75
81833;BME280;71270;52.148;4.500;2023-10-19T06:05:15;99200.47;;;14.98;81.61
81833;BME280;71270;52.148;4.500;2023-10-19T06:07:48;99188.66;;;14.84;81.73
81833;BME280;71270;52.148;4.500;2023-10-19T06:10:17;99202.13;;;14.84;82.02
81833;BME280;71270;52.148;4.500;2023-10-19T06:12:44;99181.44;;;14.69;82.39
81833;BME280;71270;52.148;4.500;2023-10-19T06:15:14;99203.22;;;14.83;82.54
81833;BME280;71270;52.148;4.500;2023-10-19T06:17:40;99208.06;;;14.80;82.40
81833;BME280;71270;52.148;4.500;2023-10-19T06:20:10;99216.22;;;14.50;83.45
81833;BME280;71270;52.148;4.500;2023-10-19T06:22:55;99219.44;;;14.26;85.17
81833;BME280;71270;52.148;4.500;2023-10-19T06:25:23;99228.31;;;14.22;85.69
81833;BME280;71270;52.148;4.500;2023-10-19T06:27:49;99210.25;;;14.07;86.22
81833;BME280;71270;52.148;4.500;2023-10-19T06:30:15;99223.44;;;14.14;85.92
81833;BME280;71270;52.148;4.500;2023-10-19T06:32:54;99219.44;;;14.26;86.08
81833;BME280;71270;52.148;4.500;2023-10-19T06:35:21;99207.31;;;14.19;86.07
81833;BME280;71270;52.148;4.500;2023-10-19T06:37:47;99216.19;;;14.14;86.26
81833;BME280;71270;52.148;4.500;2023-10-19T06:40:14;99229.91;;;14.13;86.89
81833;BME280;71270;52.148;4.500;2023-10-19T06:42:41;99217.28;;;14.08;86.46
81833;BME280;71270;52.148;4.500;2023-10-19T06:45:06;99231.81;;;14.22;86.58
81833;BME280;71270;52.148;4.500;2023-10-19T06:47:33;99230.19;;;14.11;86.25
81833;BME280;71270;52.148;4.500;2023-10-19T06:50:04;99236.91;;;14.24;86.39
81833;BME280;71270;52.148;4.500;2023-10-19T06:52:30;99235.56;;;14.26;86.09
81833;BME280;71270;52.148;4.500;2023-10-19T06:54:57;99221.84;;;14.23;86.85
81833;BME280;71270;52.148;4.500;2023-10-19T06:57:22;99218.59;;;14.21;86.13
81833;BME280;71270;52.148;4.500;2023-10-19T06:59:48;99225.34;;;14.18;86.37
81833;BME280;71270;52.148;4.500;2023-10-19T07:02:13;99235.28;;;14.28;86.26
81833;BME280;71270;52.148;4.500;2023-10-19T07:04:38;99234.47;;;14.27;86.34
81833;BME280;71270;52.148;4.500;2023-10-19T07:07:04;99230.72;;;14.28;86.38
81833;BME280;71270;52.148;4.500;2023-10-19T07:09:29;99225.31;;;14.28;86.11
81833;BME280;71270;52.148;4.500;2023-10-19T07:11:55;99230.72;;;14.28;86.21
81833;BME280;71270;52.148;4.500;2023-10-19T07:14:22;99243.63;;;14.47;86.24
81833;BME280;71270;52.148;4.500;2023-10-19T07:16:49;99242.00;;;14.46;85.71
81833;BME280;71270;52.148;4.500;2023-10-19T07:19:16;99247.38;;;14.46;86.28
81833;BME280;71270;52.148;4.500;2023-10-19T07:21:41;99240.94;;;14.37;85.95
81833;BME280;71270;52.148;4.500;2023-10-19T07:24:08;99241.19;;;14.45;86.02
81833;BME280;71270;52.148;4.500;2023-10-19T07:26:36;99250.38;;;14.44;86.04
81833;BME280;71270;52.148;4.500;2023-10-19T07:29:09;99240.44;;;14.55;85.41
81833;BME280;71270;52.148;4.500;2023-10-19T07:31:35;99244.47;;;14.52;85.31
81833;BME280;71270;52.148;4.500;2023-10-19T07:34:01;99255.78;;;14.54;85.52
81833;BME280;71270;52.148;4.500;2023-10-19T07:36:26;99249.56;;;14.59;85.48
81833;BME280;71270;52.148;4.500;2023-10-19T07:38:51;99250.66;;;14.58;85.50
81833;BME280;71270;52.148;4.500;2023-10-19T07:41:17;99253.88;;;14.65;85.22
81833;BME280;71270;52.148;4.500;2023-10-19T07:43:42;99255.22;;;14.68;85.21
81833;BME280;71270;52.148;4.500;2023-10-19T07:46:09;99247.44;;;14.61;85.06
81833;BME280;71270;52.148;4.500;2023-10-19T07:48:36;99259.78;;;14.72;84.89
81833;BME280;71270;52.148;4.500;2023-10-19T07:51:02;99264.63;;;14.80;84.72
81833;BME280;71270;52.148;4.500;2023-10-19T07:53:27;99272.97;;;14.79;84.49
81833;BME280;71270;52.148;4.500;2023-10-19T07:55:52;99252.25;;;14.69;84.56
81833;BME280;71270;52.148;4.500;2023-10-19T07:58:18;99270.00;;;14.86;84.35
81833;BME280;71270;52.148;4.500;2023-10-19T08:00:43;99270.00;;;14.86;84.41
81833;BME280;71270;52.148;4.500;2023-10-19T08:03:12;99270.25;;;14.94;84.06
81833;BME280;71270;52.148;4.500;2023-10-19T08:05:38;99261.34;;;15.04;83.68
81833;BME280;71270;52.148;4.500;2023-10-19T08:08:04;99242.50;;;14.94;83.83
81833;BME280;71270;52.148;4.500;2023-10-19T08:10:31;99258.34;;;15.11;83.20
81833;BME280;71270;52.148;4.500;2023-10-19T08:12:56;99237.34;;;15.08;82.74
81833;BME280;71270;52.148;4.500;2023-10-19T08:15:22;99226.06;;;15.00;83.57
81833;BME280;71270;52.148;4.500;2023-10-19T08:17:49;99258.03;;;15.22;83.23
81833;BME280;71270;52.148;4.500;2023-10-19T08:20:19;99254.81;;;15.20;83.43
81833;BME280;71270;52.148;4.500;2023-10-19T08:22:57;99258.03;;;15.22;83.63
81833;BME280;71270;52.148;4.500;2023-10-19T08:25:24;99260.44;;;15.29;83.28
81833;BME280;71270;52.148;4.500;2023-10-19T08:27:52;99263.13;;;15.34;83.71
81833;BME280;71270;52.148;4.500;2023-10-19T08:30:22;99262.03;;;15.35;82.73
81833;BME280;71270;52.148;4.500;2023-10-19T08:32:48;99229.78;;;15.20;83.46
81833;BME280;71270;52.148;4.500;2023-10-19T08:35:14;99247.72;;;15.45;82.16
81833;BME280;71270;52.148;4.500;2023-10-19T08:37:40;99247.72;;;15.45;83.24
81833;BME280;71270;52.148;4.500;2023-10-19T08:40:07;99251.50;;;15.39;83.47
81833;BME280;71270;52.148;4.500;2023-10-19T08:42:39;99253.16;;;15.30;83.85
81833;BME280;71270;52.148;4.500;2023-10-19T08:45:04;99255.56;;;15.36;83.70
81833;BME280;71270;52.148;4.500;2023-10-19T08:47:35;99256.59;;;15.45;83.22
81833;BME280;71270;52.148;4.500;2023-10-19T08:50:02;99249.31;;;15.46;83.06
81833;BME280;71270;52.148;4.500;2023-10-19T08:52:28;99255.28;;;15.43;82.97
81833;BME280;71270;52.148;4.500;2023-10-19T08:54:54;99235.25;;;15.54;82.89
81833;BME280;71270;52.148;4.500;2023-10-19T08:57:19;99242.25;;;15.60;82.67
81833;BME280;71270;52.148;4.500;2023-10-19T08:59:45;99247.09;;;15.58;82.92
81833;BME280;71270;52.148;4.500;2023-10-19T09:02:12;99243.09;;;16.00;81.75
81833;BME280;71270;52.148;4.500;2023-10-19T09:04:42;99244.56;;;16.21;80.90
81833;BME280;71270;52.148;4.500;2023-10-19T09:07:08;99247.72;;;16.34;80.63
81833;BME280;71270;52.148;4.500;2023-10-19T09:09:35;99246.16;;;16.57;79.52
81833;BME280;71270;52.148;4.500;2023-10-19T09:12:06;99245.34;;;16.56;79.30
81833;BME280;71270;52.148;4.500;2023-10-19T09:14:33;99244.38;;;16.47;80.03
81833;BME280;71270;52.148;4.500;2023-10-19T09:16:59;99243.81;;;16.50;79.81
81833;BME280;71270;52.148;4.500;2023-10-19T09:19:44;99244.78;;;17.36;76.60
81833;BME280;71270;52.148;4.500;2023-10-19T09:22:12;99196.97;;;16.89;77.86
81833;BME280;71270;52.148;4.500;2023-10-19T09:24:48;99226.28;;;16.77;77.57
81833;BME280;71270;52.148;4.500;2023-10-19T09:27:17;99233.81;;;16.80;77.69
81833;BME280;71270;52.148;4.500;2023-10-19T09:29:43;99236.06;;;16.67;78.74
81833;BME280;71270;52.148;4.500;2023-10-19T09:32:08;99231.41;;;16.73;78.91
81833;BME280;71270;52.148;4.500;2023-10-19T09:34:35;99233.31;;;16.73;78.71
81833;BME280;71270;52.148;4.500;2023-10-19T09:37:02;99223.00;;;17.47;76.55
81833;BME280;71270;52.148;4.500;2023-10-19T09:39:32;99218.50;;;17.61;74.99
81833;BME280;71270;52.148;4.500;2023-10-19T09:42:08;99210.59;;;17.64;74.57
81833;BME280;71270;52.148;4.500;2023-10-19T09:44:48;99209.97;;;17.30;76.12
81833;BME280;71270;52.148;4.500;2023-10-19T09:47:26;99215.38;;;17.30;76.44
81833;BME280;71270;52.148;4.500;2023-10-19T09:49:56;99195.19;;;17.03;77.37
81833;BME280;71270;52.148;4.500;2023-10-19T09:52:22;99204.47;;;17.16;77.07
81833;BME280;71270;52.148;4.500;2023-10-19T09:54:57;99210.88;;;17.44;76.29
81833;BME280;71270;52.148;4.500;2023-10-19T09:57:57;99204.97;;;16.99;78.71
81833;BME280;71270;52.148;4.500;2023-10-19T10:00:23;99203.53;;;16.83;78.57
81833;BME280;71270;52.148;4.500;2023-10-19T10:02:50;99211.16;;;16.76;78.95
81833;BME280;71270;52.148;4.500;2023-10-19T10:10:44;99211.75;;;16.38;79.28
81833;BME280;71270;52.148;4.500;2023-10-19T10:15:53;99219.59;;;16.40;80.33
81833;BME280;71270;52.148;4.500;2023-10-19T10:18:40;99221.72;;;16.43;80.22
81833;BME280;71270;52.148;4.500;2023-10-19T10:21:19;99229.53;;;16.44;80.33
81833;BME280;71270;52.148;4.500;2023-10-19T10:23:56;99226.34;;;16.37;80.64
81833;BME280;71270;52.148;4.500;2023-10-19T10:26:27;99192.44;;;16.26;80.19
81833;BME280;71270;52.148;4.500;2023-10-19T10:29:11;99202.97;;;16.57;79.45
81833;BME280;71270;52.148;4.500;2023-10-19T10:31:44;99190.56;;;16.80;79.37
81833;BME280;71270;52.148;4.500;2023-10-19T10:34:12;99192.41;;;17.08;77.48
81833;BME280;71270;52.148;4.500;2023-10-19T10:37:01;99198.38;;;17.29;77.13
81833;BME280;71270;52.148;4.500;2023-10-19T10:39:31;99211.59;;;17.31;77.14
81833;BME280;71270;52.148;4.500;2023-10-19T10:42:01;99214.81;;;17.33;76.98
81833;BME280;71270;52.148;4.500;2023-10-19T10:44:45;99220.09;;;18.19;73.86
81833;BME280;71270;52.148;4.500;2023-10-19T10:47:15;99215.53;;;19.48;69.31
81833;BME280;71270;52.148;4.500;2023-10-19T10:49:59;99206.25;;;20.22;66.68
81833;BME280;71270;52.148;4.500;2023-10-19T10:52:27;99217.56;;;20.69;64.18
81833;BME280;71270;52.148;4.500;2023-10-19T10:54:54;99191.88;;;20.53;63.60
81833;BME280;71270;52.148;4.500;2023-10-19T10:57:20;99208.97;;;19.49;68.44
81833;BME280;71270;52.148;4.500;2023-10-19T10:59:45;99205.31;;;19.18;70.62
81833;BME280;71270;52.148;4.500;2023-10-19T11:02:18;99184.88;;;18.51;71.41
81833;BME280;71270;52.148;4.500;2023-10-19T11:04:45;99206.50;;;18.38;72.16
81833;BME280;71270;52.148;4.500;2023-10-19T11:07:18;99170.56;;;18.18;72.83
81833;BME280;71270;52.148;4.500;2023-10-19T11:09:45;99183.78;;;18.20;73.69
81833;BME280;71270;52.148;4.500;2023-10-19T11:12:14;99177.09;;;18.77;72.42
81833;BME280;71270;52.148;4.500;2023-10-19T11:14:57;99180.31;;;19.07;70.81
81833;BME280;71270;52.148;4.500;2023-10-19T11:17:28;99195.38;;;19.99;67.08
81833;BME280;71270;52.148;4.500;2023-10-19T11:19:58;99203.22;;;20.23;65.79
81833;BME280;71270;52.148;4.500;2023-10-19T11:22:27;99197.59;;;20.20;66.27
81833;BME280;71270;52.148;4.500;2023-10-19T11:24:53;99198.31;;;19.67;66.86
81833;BME280;71270;52.148;4.500;2023-10-19T11:27:26;99169.00;;;19.41;67.33
81833;BME280;71270;52.148;4.500;2023-10-19T11:29:59;99183.00;;;19.71;65.73
81833;BME280;71270;52.148;4.500;2023-10-19T11:32:36;99166.22;;;20.36;64.87
81833;BME280;71270;52.148;4.500;2023-10-19T11:35:03;99143.56;;;19.87;64.56
81833;BME280;71270;52.148;4.500;2023-10-19T11:37:29;99165.75;;;20.74;63.04
81833;BME280;71270;52.148;4.500;2023-10-19T11:39:54;99159.97;;;20.67;62.57
81833;BME280;71270;52.148;4.500;2023-10-19T11:42:19;99168.41;;;20.03;65.41
81833;BME280;71270;52.148;4.500;2023-10-19T11:44:45;99170.63;;;19.28;67.68
81833;BME280;71270;52.148;4.500;2023-10-19T11:47:11;99163.63;;;19.14;68.34
81833;BME280;71270;52.148;4.500;2023-10-19T11:49:36;99158.72;;;19.02;68.95
81833;BME280;71270;52.148;4.500;2023-10-19T11:52:06;99161.41;;;18.60;70.67
81833;BME280;71270;52.148;4.500;2023-10-19T11:54:34;99154.75;;;18.53;71.25
81833;BME280;71270;52.148;4.500;2023-10-19T11:57:00;99152.34;;;18.38;71.86
81833;BME280;71270;52.148;4.500;2023-10-19T11:59:25;99145.97;;;18.15;72.30
81833;BME280;71270;52.148;4.500;2023-10-19T12:01:51;99123.66;;;17.90;72.66
81833;BME280;71270;52.148;4.500;2023-10-19T12:04:17;99142.22;;;17.97;73.11
81833;BME280;71270;52.148;4.500;2023-10-19T12:06:43;99142.69;;;17.85;73.33
81833;BME280;71270;52.148;4.500;2023-10-19T12:09:08;99142.00;;;17.74;74.74
81833;BME280;71270;52.148;4.500;2023-10-19T12:11:40;99133.03;;;17.79;74.39
81833;BME280;71270;52.148;4.500;2023-10-19T12:14:06;99133.97;;;17.88;74.75
81833;BME280;71270;52.148;4.500;2023-10-19T12:16:36;99137.84;;;17.82;74.65
81833;BME280;71270;52.148;4.500;2023-10-19T12:19:01;99131.97;;;17.75;75.40
81833;BME280;71270;52.148;4.500;2023-10-19T12:21:28;99138.06;;;17.67;76.01
81833;BME280;71270;52.148;4.500;2023-10-19T12:23:55;99139.59;;;17.73;75.65
81833;BME280;71270;52.148;4.500;2023-10-19T12:26:22;99134.41;;;17.57;76.14
81833;BME280;71270;52.148;4.500;2023-10-19T12:28:47;99130.69;;;17.53;76.02
81833;BME280;71270;52.148;4.500;2023-10-19T12:31:14;99124.94;;;17.41;76.61
81833;BME280;71270;52.148;4.500;2023-10-19T12:33:40;99121.13;;;17.42;77.49
81833;BME280;71270;52.148;4.500;2023-10-19T12:36:07;99127.34;;;17.42;77.23
81833;BME280;71270;52.148;4.500;2023-10-19T12:38:50;99104.03;;;17.28;77.67
81833;BME280;71270;52.148;4.500;2023-10-19T12:41:18;99102.19;;;17.23;78.78
81833;BME280;71270;52.148;4.500;2023-10-19T12:43:43;99113.59;;;17.39;78.40
81833;BME280;71270;52.148;4.500;2023-10-19T12:46:09;99090.22;;;17.29;77.90
81833;BME280;71270;52.148;4.500;2023-10-19T12:48:35;99069.75;;;17.42;76.96
81833;BME280;71270;52.148;4.500;2023-10-19T12:51:01;99093.25;;;17.79;71.75
81833;BME280;71270;52.148;4.500;2023-10-19T12:53:27;99096.25;;;17.78;75.24
81833;BME280;71270;52.148;4.500;2023-10-19T12:55:53;99100.69;;;17.69;77.18
81833;BME280;71270;52.148;4.500;2023-10-19T12:58:18;99102.53;;;17.54;77.02
81833;BME280;71270;52.148;4.500;2023-10-19T13:00:47;99110.81;;;17.44;77.56
81833;BME280;71270;52.148;4.500;2023-10-19T13:03:14;99110.97;;;17.15;79.10
81833;BME280;71270;52.148;4.500;2023-10-19T13:05:40;99103.88;;;17.00;79.80
81833;BME280;71270;52.148;4.500;2023-10-19T13:08:12;99101.09;;;17.05;80.66
81833;BME280;71270;52.148;4.500;2023-10-19T13:10:42;99099.94;;;17.11;79.99
81833;BME280;71270;52.148;4.500;2023-10-19T13:13:12;99093.72;;;17.30;78.63
81833;BME280;71270;52.148;4.500;2023-10-19T13:15:39;99095.13;;;17.27;78.63